• pl
  • eng

Awiacja
WIADOMOŚCI
ostatnia aktualizacja: 13.03.2020 07:57
Od dnia 13.03.2020 do odwołania zawieszone zostaje opracowywanie prognozy Gafor.
TAF FC 07:30 10.04.2020
  • WIND
  • SIGNIFICANT EURO
  • SIGNIFICANT
  • SIGMET
  • AIRMET
  • TAF FC
  • TAF FT
  • METAR GG30
  • METAR GG00


TAF EPLB 100530Z 1006/1015 33010KT CAVOK=

TAF EPRA 100602Z 1006/1015 32008KT CAVOK=

TAF EPZG 100530Z 1006/1015 VRB02KT CAVOK=
Awiacja.imgw.pl jest pogodowym serwisem informacyjnym
Instytutu Meteorologii i Gospodarki Wodnej Państwowego Instytutu Badawczego.
Copyright IMGW PIB 2009-2019© Wszelkie prawa zastrzeżone.